sensor_id;sensor_type;location;lat;lon;timestamp;pressure;altitude;pressure_sealevel;temperature;humidity
10476;BME280;26166;48.264;11.436;2023-01-29T00:02:12;97074.47;;;8.59;48.90
10476;BME280;26166;48.264;11.436;2023-01-29T00:05:12;97078.75;;;8.60;49.17
10476;BME280;26166;48.264;11.436;2023-01-29T00:08:12;97076.38;;;8.57;49.00
10476;BME280;26166;48.264;11.436;2023-01-29T00:11:12;97081.38;;;8.60;48.66
10476;BME280;26166;48.264;11.436;2023-01-29T00:14:13;97087.28;;;8.62;49.34
10476;BME280;26166;48.264;11.436;2023-01-29T00:17:13;97082.88;;;8.63;49.01
10476;BME280;26166;48.264;11.436;2023-01-29T00:20:13;97087.28;;;8.62;48.84
10476;BME280;26166;48.264;11.436;2023-01-29T00:23:14;97087.28;;;8.62;48.82
10476;BME280;26166;48.264;11.436;2023-01-29T00:26:14;97096.94;;;8.62;48.72
10476;BME280;26166;48.264;11.436;2023-01-29T00:29:15;97091.84;;;8.60;49.10
10476;BME280;26166;48.264;11.436;2023-01-29T00:32:16;97091.13;;;8.58;48.83
10476;BME280;26166;48.264;11.436;2023-01-29T00:35:17;97084.25;;;8.57;48.84
10476;BME280;26166;48.264;11.436;2023-01-29T00:38:17;97086.03;;;8.56;48.88
10476;BME280;26166;48.264;11.436;2023-01-29T00:41:17;97091.41;;;8.55;48.94
10476;BME280;26166;48.264;11.436;2023-01-29T00:44:36;97089.63;;;8.55;48.96
10476;BME280;26166;48.264;11.436;2023-01-29T00:47:55;97089.19;;;8.50;48.79
10476;BME280;26166;48.264;11.436;2023-01-29T00:50:55;97094.97;;;8.54;48.91
10476;BME280;26166;48.264;11.436;2023-01-29T00:53:55;97089.75;;;8.54;49.01
10476;BME280;26166;48.264;11.436;2023-01-29T00:56:57;97094.97;;;8.54;48.65
10476;BME280;26166;48.264;11.436;2023-01-29T00:59:57;97091.41;;;8.55;48.87
10476;BME280;26166;48.264;11.436;2023-01-29T01:02:57;97086.88;;;8.57;48.88
10476;BME280;26166;48.264;11.436;2023-01-29T01:06:08;97088.66;;;8.56;48.53
10476;BME280;26166;48.264;11.436;2023-01-29T01:09:09;97090.72;;;8.53;48.67
10476;BME280;26166;48.264;11.436;2023-01-29T01:12:28;97086.19;;;8.55;48.59
10476;BME280;26166;48.264;11.436;2023-01-29T01:15:29;97090.03;;;8.51;48.76
10476;BME280;26166;48.264;11.436;2023-01-29T01:18:30;97099.78;;;8.49;48.86
10476;BME280;26166;48.264;11.436;2023-01-29T01:21:31;97099.38;;;8.53;48.55
10476;BME280;26166;48.264;11.436;2023-01-29T01:24:31;97097.59;;;8.54;48.57
10476;BME280;26166;48.264;11.436;2023-01-29T01:27:31;97101.91;;;8.55;48.35
10476;BME280;26166;48.264;11.436;2023-01-29T01:30:33;97098.72;;;8.51;48.48
10476;BME280;26166;48.264;11.436;2023-01-29T01:33:33;97106.81;;;8.48;48.62
10476;BME280;26166;48.264;11.436;2023-01-29T01:36:34;97107.66;;;8.49;48.25
10476;BME280;26166;48.264;11.436;2023-01-29T01:39:34;97106.00;;;8.48;48.39
10476;BME280;26166;48.264;11.436;2023-01-29T01:42:34;97098.00;;;8.49;48.16
10476;BME280;26166;48.264;11.436;2023-01-29T01:45:34;97094.28;;;8.52;48.42
10476;BME280;26166;48.264;11.436;2023-01-29T01:48:35;97104.19;;;8.48;48.17
10476;BME280;26166;48.264;11.436;2023-01-29T01:51:37;97094.56;;;8.49;48.20
10476;BME280;26166;48.264;11.436;2023-01-29T01:54:39;97098.00;;;8.49;48.24
10476;BME280;26166;48.264;11.436;2023-01-29T01:57:40;97091.94;;;8.49;48.19
10476;BME280;26166;48.264;11.436;2023-01-29T02:00:42;97097.75;;;8.52;48.11
10476;BME280;26166;48.264;11.436;2023-01-29T02:03:46;97097.59;;;8.54;47.98
10476;BME280;26166;48.264;11.436;2023-01-29T02:07:08;97098.72;;;8.51;47.92
10476;BME280;26166;48.264;11.436;2023-01-29T02:10:29;97095.53;;;8.48;48.24
10476;BME280;26166;48.264;11.436;2023-01-29T02:13:31;97098.81;;;8.50;48.21
10476;BME280;26166;48.264;11.436;2023-01-29T02:16:32;97093.47;;;8.51;48.21
10476;BME280;26166;48.264;11.436;2023-01-29T02:29:17;97090.84;;;8.51;48.19
10476;BME280;26166;48.264;11.436;2023-01-29T02:35:52;97098.56;;;8.53;48.16
10476;BME280;26166;48.264;11.436;2023-01-29T02:39:03;97090.97;;;8.50;48.41
10476;BME280;26166;48.264;11.436;2023-01-29T02:42:10;97078.72;;;8.50;48.13
10476;BME280;26166;48.264;11.436;2023-01-29T02:45:21;97079.25;;;8.54;48.14
10476;BME280;26166;48.264;11.436;2023-01-29T02:48:23;97076.78;;;8.52;48.09
10476;BME280;26166;48.264;11.436;2023-01-29T02:54:33;97070.47;;;8.55;47.86
10476;BME280;26166;48.264;11.436;2023-01-29T02:57:36;97073.09;;;8.55;47.83
10476;BME280;26166;48.264;11.436;2023-01-29T03:00:40;97069.66;;;8.54;47.96
10476;BME280;26166;48.264;11.436;2023-01-29T03:03:42;97081.63;;;8.57;47.78
10476;BME280;26166;48.264;11.436;2023-01-29T03:06:46;97079.00;;;8.57;47.70
10476;BME280;26166;48.264;11.436;2023-01-29T03:09:48;97078.03;;;8.58;47.54
10476;BME280;26166;48.264;11.436;2023-01-29T03:13:13;97082.59;;;8.56;47.65
10476;BME280;26166;48.264;11.436;2023-01-29T03:16:19;97081.78;;;8.55;47.74
10476;BME280;26166;48.264;11.436;2023-01-29T03:22:27;97092.25;;;8.55;47.53
10476;BME280;26166;48.264;11.436;2023-01-29T03:25:28;97085.47;;;8.53;47.52
10476;BME280;26166;48.264;11.436;2023-01-29T03:28:48;97090.03;;;8.51;47.68
10476;BME280;26166;48.264;11.436;2023-01-29T03:32:08;97093.31;;;8.53;47.69
10476;BME280;26166;48.264;11.436;2023-01-29T03:35:10;97092.94;;;8.57;47.63
10476;BME280;26166;48.264;11.436;2023-01-29T03:38:13;97096.38;;;8.58;47.46
10476;BME280;26166;48.264;11.436;2023-01-29T03:41:27;97085.88;;;8.58;47.69
10476;BME280;26166;48.264;11.436;2023-01-29T03:44:36;97079.00;;;8.57;47.52
10476;BME280;26166;48.264;11.436;2023-01-29T03:47:45;97061.38;;;8.59;47.39
10476;BME280;26166;48.264;11.436;2023-01-29T03:50:52;97054.47;;;8.58;47.38
10476;BME280;26166;48.264;11.436;2023-01-29T03:54:04;97052.81;;;8.57;47.40
10476;BME280;26166;48.264;11.436;2023-01-29T03:57:15;97058.47;;;8.52;47.20
10476;BME280;26166;48.264;11.436;2023-01-29T04:00:17;97057.38;;;8.55;47.10
10476;BME280;26166;48.264;11.436;2023-01-29T04:03:23;97055.44;;;8.57;47.25
10476;BME280;26166;48.264;11.436;2023-01-29T04:06:26;97060.53;;;8.58;47.20
10476;BME280;26166;48.264;11.436;2023-01-29T04:09:37;97053.38;;;8.61;47.09
10476;BME280;26166;48.264;11.436;2023-01-29T04:12:40;97057.78;;;8.60;46.82
10476;BME280;26166;48.264;11.436;2023-01-29T04:15:43;97062.31;;;8.58;47.30
10476;BME280;26166;48.264;11.436;2023-01-29T04:18:46;97064.69;;;8.61;47.09
10476;BME280;26166;48.264;11.436;2023-01-29T04:21:46;97067.88;;;8.65;47.13
10476;BME280;26166;48.264;11.436;2023-01-29T04:24:48;97065.38;;;8.63;47.31
10476;BME280;26166;48.264;11.436;2023-01-29T04:27:58;97071.31;;;8.65;47.28
10476;BME280;26166;48.264;11.436;2023-01-29T04:31:04;97062.75;;;8.63;47.37
10476;BME280;26166;48.264;11.436;2023-01-29T04:56:27;97058.06;;;8.67;47.07
10476;BME280;26166;48.264;11.436;2023-01-29T04:59:31;97056.41;;;8.66;47.15
10476;BME280;26166;48.264;11.436;2023-01-29T05:02:35;97064.28;;;8.66;47.01
10476;BME280;26166;48.264;11.436;2023-01-29T05:05:38;97062.47;;;8.66;47.06
10476;BME280;26166;48.264;11.436;2023-01-29T05:08:39;97061.81;;;8.64;46.74
10476;BME280;26166;48.264;11.436;2023-01-29T05:11:40;97058.06;;;8.57;46.92
10476;BME280;26166;48.264;11.436;2023-01-29T05:14:41;97065.75;;;8.58;46.74
10476;BME280;26166;48.264;11.436;2023-01-29T05:17:43;97072.13;;;8.56;46.61
10476;BME280;26166;48.264;11.436;2023-01-29T05:20:43;97082.44;;;8.57;46.59
10476;BME280;26166;48.264;11.436;2023-01-29T05:23:43;97084.66;;;8.52;46.63
10476;BME280;26166;48.264;11.436;2023-01-29T05:26:52;97093.72;;;8.48;46.77
10476;BME280;26166;48.264;11.436;2023-01-29T05:30:12;97088.34;;;8.50;47.03
10476;BME280;26166;48.264;11.436;2023-01-29T05:33:14;97093.47;;;8.51;46.86
10476;BME280;26166;48.264;11.436;2023-01-29T05:36:14;97094.28;;;8.52;46.85
10476;BME280;26166;48.264;11.436;2023-01-29T05:39:14;97091.53;;;8.53;46.71
10476;BME280;26166;48.264;11.436;2023-01-29T05:42:15;97094.88;;;8.55;46.54
10476;BME280;26166;48.264;11.436;2023-01-29T05:45:15;97103.81;;;8.53;46.65
10476;BME280;26166;48.264;11.436;2023-01-29T05:48:16;97105.34;;;8.55;46.72
10476;BME280;26166;48.264;11.436;2023-01-29T05:51:16;97099.38;;;8.53;46.38
10476;BME280;26166;48.264;11.436;2023-01-29T05:54:16;97092.25;;;8.55;46.48
10476;BME280;26166;48.264;11.436;2023-01-29T05:57:16;97100.94;;;8.56;46.66
10476;BME280;26166;48.264;11.436;2023-01-29T06:00:17;97091.94;;;8.58;46.66
10476;BME280;26166;48.264;11.436;2023-01-29T06:03:17;97099.56;;;8.62;46.63
10476;BME280;26166;48.264;11.436;2023-01-29T06:06:17;97094.16;;;8.63;46.45
10476;BME280;26166;48.264;11.436;2023-01-29T06:09:17;97092.81;;;8.69;46.14
10476;BME280;26166;48.264;11.436;2023-01-29T06:12:18;97093.41;;;8.72;46.28
10476;BME280;26166;48.264;11.436;2023-01-29T06:15:18;97091.44;;;8.74;46.30
10476;BME280;26166;48.264;11.436;2023-01-29T06:18:18;97084.28;;;8.76;46.15
10476;BME280;26166;48.264;11.436;2023-01-29T06:21:19;97087.03;;;8.75;46.45
10476;BME280;26166;48.264;11.436;2023-01-29T06:24:19;97091.19;;;8.77;46.28
10476;BME280;26166;48.264;11.436;2023-01-29T06:27:19;97082.63;;;8.75;46.63
10476;BME280;26166;48.264;11.436;2023-01-29T06:30:19;97083.75;;;8.73;46.38
10476;BME280;26166;48.264;11.436;2023-01-29T06:33:19;97087.59;;;8.69;46.40
10476;BME280;26166;48.264;11.436;2023-01-29T06:36:19;97088.28;;;8.71;46.36
10476;BME280;26166;48.264;11.436;2023-01-29T06:39:20;97085.38;;;8.74;46.17
10476;BME280;26166;48.264;11.436;2023-01-29T06:42:20;97089.66;;;8.75;45.99
10476;BME280;26166;48.264;11.436;2023-01-29T06:45:26;97092.44;;;8.73;46.00
10476;BME280;26166;48.264;11.436;2023-01-29T06:48:26;97100.00;;;8.76;45.98
10476;BME280;26166;48.264;11.436;2023-01-29T06:51:27;97100.00;;;8.76;45.90
10476;BME280;26166;48.264;11.436;2023-01-29T06:54:27;97100.84;;;8.77;45.89
10476;BME280;26166;48.264;11.436;2023-01-29T06:57:28;97116.28;;;8.80;45.90
10476;BME280;26166;48.264;11.436;2023-01-29T07:00:29;97102.63;;;8.76;46.05
10476;BME280;26166;48.264;11.436;2023-01-29T07:03:29;97096.00;;;8.72;45.82
10476;BME280;26166;48.264;11.436;2023-01-29T07:06:29;97093.94;;;8.76;46.07
10476;BME280;26166;48.264;11.436;2023-01-29T07:09:30;97090.63;;;8.74;46.07
10476;BME280;26166;48.264;11.436;2023-01-29T07:12:30;97074.09;;;8.73;45.93
10476;BME280;26166;48.264;11.436;2023-01-29T07:15:30;97071.88;;;8.69;45.80
10476;BME280;26166;48.264;11.436;2023-01-29T07:18:30;97079.16;;;8.65;45.71
10476;BME280;26166;48.264;11.436;2023-01-29T07:21:30;97080.97;;;8.65;45.48
10476;BME280;26166;48.264;11.436;2023-01-29T07:24:31;97080.66;;;8.58;45.34
10476;BME280;26166;48.264;11.436;2023-01-29T07:27:31;97081.38;;;8.60;45.37
10476;BME280;26166;48.264;11.436;2023-01-29T07:30:32;97069.09;;;8.61;45.45
10476;BME280;26166;48.264;11.436;2023-01-29T07:33:32;97061.09;;;8.62;45.62
10476;BME280;26166;48.264;11.436;2023-01-29T07:36:32;97064.00;;;8.59;45.71
10476;BME280;26166;48.264;11.436;2023-01-29T07:39:32;97061.38;;;8.59;45.55
10476;BME280;26166;48.264;11.436;2023-01-29T07:42:32;97063.03;;;8.60;45.54
10476;BME280;26166;48.264;11.436;2023-01-29T07:45:34;97063.72;;;8.62;45.46
10476;BME280;26166;48.264;11.436;2023-01-29T07:48:35;97057.50;;;8.63;45.46
10476;BME280;26166;48.264;11.436;2023-01-29T07:51:35;97064.69;;;8.61;45.70
10476;BME280;26166;48.264;11.436;2023-01-29T07:54:35;97074.19;;;8.62;45.40
10476;BME280;26166;48.264;11.436;2023-01-29T07:57:35;97068.84;;;8.64;45.46
10476;BME280;26166;48.264;11.436;2023-01-29T08:00:35;97068.69;;;8.65;45.21
10476;BME280;26166;48.264;11.436;2023-01-29T08:03:36;97064.13;;;8.67;45.22
10476;BME280;26166;48.264;11.436;2023-01-29T08:06:36;97068.44;;;8.68;45.27
10476;BME280;26166;48.264;11.436;2023-01-29T08:09:36;97067.72;;;8.66;45.27
10476;BME280;26166;48.264;11.436;2023-01-29T08:12:36;97068.53;;;8.67;45.18
10476;BME280;26166;48.264;11.436;2023-01-29T08:15:37;97074.06;;;8.64;45.11
10476;BME280;26166;48.264;11.436;2023-01-29T08:18:37;97074.59;;;8.67;45.11
10476;BME280;26166;48.264;11.436;2023-01-29T08:21:38;97079.59;;;8.70;45.31
10476;BME280;26166;48.264;11.436;2023-01-29T08:24:38;97078.19;;;8.66;45.16
10476;BME280;26166;48.264;11.436;2023-01-29T08:27:39;97086.63;;;8.70;45.35
10476;BME280;26166;48.264;11.436;2023-01-29T08:30:39;97085.66;;;8.71;45.07
10476;BME280;26166;48.264;11.436;2023-01-29T08:33:39;97081.25;;;8.71;44.96
10476;BME280;26166;48.264;11.436;2023-01-29T08:36:39;97088.41;;;8.69;44.98
10476;BME280;26166;48.264;11.436;2023-01-29T08:39:40;97095.56;;;8.67;45.01
10476;BME280;26166;48.264;11.436;2023-01-29T08:42:40;97106.91;;;8.68;45.04
10476;BME280;26166;48.264;11.436;2023-01-29T08:45:41;97106.75;;;8.69;44.93
10476;BME280;26166;48.264;11.436;2023-01-29T08:48:42;97107.72;;;8.68;44.88
10476;BME280;26166;48.264;11.436;2023-01-29T08:51:42;97114.75;;;8.68;44.83
10476;BME280;26166;48.264;11.436;2023-01-29T08:54:42;97123.28;;;8.70;45.14
10476;BME280;26166;48.264;11.436;2023-01-29T08:57:42;97120.28;;;8.74;44.83
10476;BME280;26166;48.264;11.436;2023-01-29T09:00:42;97125.28;;;8.47;44.83
10476;BME280;26166;48.264;11.436;2023-01-29T09:03:43;97122.94;;;8.23;45.47
10476;BME280;26166;48.264;11.436;2023-01-29T09:06:43;97125.25;;;8.37;45.03
10476;BME280;26166;48.264;11.436;2023-01-29T09:09:44;97130.78;;;8.44;45.40
10476;BME280;26166;48.264;11.436;2023-01-29T09:12:44;97133.97;;;8.47;45.17
10476;BME280;26166;48.264;11.436;2023-01-29T09:15:44;97137.97;;;8.42;45.24
10476;BME280;26166;48.264;11.436;2023-01-29T09:18:44;97138.09;;;8.50;45.05
10476;BME280;26166;48.264;11.436;2023-01-29T09:21:44;97138.66;;;8.53;44.68
10476;BME280;26166;48.264;11.436;2023-01-29T09:24:45;97140.03;;;8.48;44.82
10476;BME280;26166;48.264;11.436;2023-01-29T09:27:45;97142.91;;;8.45;44.86
10476;BME280;26166;48.264;11.436;2023-01-29T09:30:45;97146.50;;;8.44;44.90
10476;BME280;26166;48.264;11.436;2023-01-29T09:33:45;97158.38;;;8.48;45.08
10476;BME280;26166;48.264;11.436;2023-01-29T09:36:45;97151.47;;;8.47;44.96
10476;BME280;26166;48.264;11.436;2023-01-29T09:39:46;97149.03;;;8.55;44.81
10476;BME280;26166;48.264;11.436;2023-01-29T09:42:48;97160.00;;;8.49;44.72
10476;BME280;26166;48.264;11.436;2023-01-29T09:45:52;97158.09;;;8.51;44.38
10476;BME280;26166;48.264;11.436;2023-01-29T09:49:06;97158.69;;;8.54;44.21
10476;BME280;26166;48.264;11.436;2023-01-29T09:52:31;97158.53;;;8.56;44.49
10476;BME280;26166;48.264;11.436;2023-01-29T09:55:29;97153.31;;;8.56;44.27
10476;BME280;26166;48.264;11.436;2023-01-29T10:01:47;97155.34;;;8.52;44.66
10476;BME280;26166;48.264;11.436;2023-01-29T10:10:50;97150.09;;;8.52;43.68
10476;BME280;26166;48.264;11.436;2023-01-29T10:14:01;97149.53;;;8.49;43.83
10476;BME280;26166;48.264;11.436;2023-01-29T10:26:25;97143.63;;;8.47;44.30
10476;BME280;26166;48.264;11.436;2023-01-29T10:29:27;97137.66;;;8.45;43.76
10476;BME280;26166;48.264;11.436;2023-01-29T10:32:28;97142.66;;;8.48;44.27
10476;BME280;26166;48.264;11.436;2023-01-29T10:35:40;97136.03;;;8.53;44.05
10476;BME280;26166;48.264;11.436;2023-01-29T10:38:45;97137.84;;;8.53;44.41
10476;BME280;26166;48.264;11.436;2023-01-29T10:44:55;97133.16;;;8.47;43.84
10476;BME280;26166;48.264;11.436;2023-01-29T10:48:08;97135.75;;;8.47;43.73
10476;BME280;26166;48.264;11.436;2023-01-29T10:51:21;97139.84;;;8.40;43.99
10476;BME280;26166;48.264;11.436;2023-01-29T10:54:36;97137.56;;;8.46;44.14
10476;BME280;26166;48.264;11.436;2023-01-29T11:00:52;97130.31;;;8.59;44.05
10476;BME280;26166;48.264;11.436;2023-01-29T11:04:02;97130.59;;;8.66;43.62
10476;BME280;26166;48.264;11.436;2023-01-29T11:07:03;97123.72;;;8.75;43.53
10476;BME280;26166;48.264;11.436;2023-01-29T11:10:06;97116.56;;;8.77;43.47
10476;BME280;26166;48.264;11.436;2023-01-29T11:13:10;97105.78;;;8.80;43.17
10476;BME280;26166;48.264;11.436;2023-01-29T11:16:13;97106.63;;;8.80;43.15
10476;BME280;26166;48.264;11.436;2023-01-29T11:19:35;97103.06;;;8.81;43.26
10476;BME280;26166;48.264;11.436;2023-01-29T11:22:35;97085.81;;;8.79;42.98
10476;BME280;26166;48.264;11.436;2023-01-29T11:25:36;97093.25;;;8.83;43.30
10476;BME280;26166;48.264;11.436;2023-01-29T11:28:40;97096.84;;;8.82;43.14
10476;BME280;26166;48.264;11.436;2023-01-29T11:31:40;97086.78;;;8.88;42.94
10476;BME280;26166;48.264;11.436;2023-01-29T11:35:00;97081.69;;;8.86;42.81
10476;BME280;26166;48.264;11.436;2023-01-29T11:38:14;97080.97;;;8.74;42.86
10476;BME280;26166;48.264;11.436;2023-01-29T11:41:18;97075.06;;;8.72;42.98
10476;BME280;26166;48.264;11.436;2023-01-29T11:44:26;97067.88;;;8.74;43.03
10476;BME280;26166;48.264;11.436;2023-01-29T11:47:27;97062.38;;;8.77;42.83
10476;BME280;26166;48.264;11.436;2023-01-29T11:50:28;97044.72;;;8.79;42.56
10476;BME280;26166;48.264;11.436;2023-01-29T11:53:32;97031.63;;;8.79;42.69
10476;BME280;26166;48.264;11.436;2023-01-29T11:56:40;97019.75;;;8.85;42.59
10476;BME280;26166;48.264;11.436;2023-01-29T11:59:42;97022.38;;;8.85;42.45
10476;BME280;26166;48.264;11.436;2023-01-29T12:02:48;97029.41;;;8.84;42.49
10476;BME280;26166;48.264;11.436;2023-01-29T12:05:53;97025.84;;;8.86;42.42
10476;BME280;26166;48.264;11.436;2023-01-29T12:08:56;97036.59;;;8.82;42.50
10476;BME280;26166;48.264;11.436;2023-01-29T12:12:06;97038.81;;;8.87;42.56
10476;BME280;26166;48.264;11.436;2023-01-29T12:18:35;97042.66;;;8.83;42.74
10476;BME280;26166;48.264;11.436;2023-01-29T12:24:54;97040.59;;;8.87;42.71
10476;BME280;26166;48.264;11.436;2023-01-29T12:40:58;97026.94;;;8.73;43.09
10476;BME280;26166;48.264;11.436;2023-01-29T12:44:43;97019.50;;;8.78;43.00
10476;BME280;26166;48.264;11.436;2023-01-29T12:47:25;97004.34;;;8.82;43.18
10476;BME280;26166;48.264;11.436;2023-01-29T12:53:30;96990.25;;;8.83;43.09
10476;BME280;26166;48.264;11.436;2023-01-29T12:56:35;96977.84;;;8.85;43.09
10476;BME280;26166;48.264;11.436;2023-01-29T12:59:44;96968.34;;;8.84;43.34
10476;BME280;26166;48.264;11.436;2023-01-29T13:06:16;96964.31;;;8.90;42.92
10476;BME280;26166;48.264;11.436;2023-01-29T13:09:23;96957.44;;;8.89;42.82
10476;BME280;26166;48.264;11.436;2023-01-29T13:12:24;96955.53;;;8.91;42.56
10476;BME280;26166;48.264;11.436;2023-01-29T13:15:30;96948.59;;;8.90;43.02
10476;BME280;26166;48.264;11.436;2023-01-29T13:21:34;96952.09;;;8.90;42.80
10476;BME280;26166;48.264;11.436;2023-01-29T13:24:37;96948.91;;;8.87;43.14
10476;BME280;26166;48.264;11.436;2023-01-29T13:27:38;96947.25;;;8.86;43.23
10476;BME280;26166;48.264;11.436;2023-01-29T13:30:40;96945.03;;;8.91;42.47
10476;BME280;26166;48.264;11.436;2023-01-29T13:33:41;96947.66;;;8.91;43.09
10476;BME280;26166;48.264;11.436;2023-01-29T13:36:52;96939.50;;;8.94;43.07
10476;BME280;26166;48.264;11.436;2023-01-29T13:39:54;96934.25;;;8.94;42.75
10476;BME280;26166;48.264;11.436;2023-01-29T13:42:56;96929.31;;;8.91;42.77
10476;BME280;26166;48.264;11.436;2023-01-29T13:45:56;96918.44;;;8.86;43.15
10476;BME280;26166;48.264;11.436;2023-01-29T13:49:02;96912.50;;;8.83;43.00
10476;BME280;26166;48.264;11.436;2023-01-29T13:52:14;96914.69;;;8.88;42.87
10476;BME280;26166;48.264;11.436;2023-01-29T14:04:44;96910.84;;;8.92;43.07
10476;BME280;26166;48.264;11.436;2023-01-29T14:10:44;96895.09;;;8.92;42.80
10476;BME280;26166;48.264;11.436;2023-01-29T14:13:46;96885.59;;;8.91;42.88
10476;BME280;26166;48.264;11.436;2023-01-29T14:16:46;96893.59;;;8.90;42.88
10476;BME280;26166;48.264;11.436;2023-01-29T14:19:52;96899.69;;;8.90;42.85
10476;BME280;26166;48.264;11.436;2023-01-29T14:22:54;96906.69;;;8.90;43.10
10476;BME280;26166;48.264;11.436;2023-01-29T14:25:56;96904.38;;;8.87;43.09
10476;BME280;26166;48.264;11.436;2023-01-29T14:32:20;96918.28;;;8.87;43.02
10476;BME280;26166;48.264;11.436;2023-01-29T14:35:22;96915.81;;;8.86;43.41
10476;BME280;26166;48.264;11.436;2023-01-29T14:38:24;96932.88;;;8.90;43.00
10476;BME280;26166;48.264;11.436;2023-01-29T14:41:27;96939.09;;;8.89;43.19
10476;BME280;26166;48.264;11.436;2023-01-29T14:47:53;96939.41;;;8.86;43.37
10476;BME280;26166;48.264;11.436;2023-01-29T14:50:54;96940.06;;;8.88;43.08
10476;BME280;26166;48.264;11.436;2023-01-29T14:54:00;96932.38;;;8.86;43.18
10476;BME280;26166;48.264;11.436;2023-01-29T14:57:02;96926.97;;;8.88;43.07
10476;BME280;26166;48.264;11.436;2023-01-29T15:00:05;96919.13;;;8.88;43.16
10476;BME280;26166;48.264;11.436;2023-01-29T15:03:12;96908.06;;;8.84;43.27
10476;BME280;26166;48.264;11.436;2023-01-29T15:06:17;96909.59;;;8.87;43.17
10476;BME280;26166;48.264;11.436;2023-01-29T15:13:02;96905.03;;;8.89;43.31
10476;BME280;26166;48.264;11.436;2023-01-29T15:16:07;96908.75;;;8.96;43.14
10476;BME280;26166;48.264;11.436;2023-01-29T15:19:17;96919.50;;;8.93;43.08
10476;BME280;26166;48.264;11.436;2023-01-29T15:22:21;96928.78;;;8.87;43.22
10476;BME280;26166;48.264;11.436;2023-01-29T15:25:22;96926.81;;;8.89;43.19
10476;BME280;26166;48.264;11.436;2023-01-29T15:28:23;96931.25;;;8.89;43.23
10476;BME280;26166;48.264;11.436;2023-01-29T15:31:23;96923.53;;;8.87;43.09
10476;BME280;26166;48.264;11.436;2023-01-29T15:34:23;96917.59;;;8.85;42.97
10476;BME280;26166;48.264;11.436;2023-01-29T15:37:28;96925.59;;;8.83;43.26
10476;BME280;26166;48.264;11.436;2023-01-29T15:40:28;96916.75;;;8.84;43.11
10476;BME280;26166;48.264;11.436;2023-01-29T15:43:30;96925.31;;;8.87;42.95
10476;BME280;26166;48.264;11.436;2023-01-29T15:49:32;96930.44;;;8.78;43.21
10476;BME280;26166;48.264;11.436;2023-01-29T15:52:33;96929.59;;;8.78;43.05
10476;BME280;26166;48.264;11.436;2023-01-29T15:55:34;96923.13;;;8.72;43.11
10476;BME280;26166;48.264;11.436;2023-01-29T15:58:34;96920.78;;;8.79;43.22
10476;BME280;26166;48.264;11.436;2023-01-29T16:01:34;96923.25;;;8.80;43.07
10476;BME280;26166;48.264;11.436;2023-01-29T16:04:35;96933.31;;;8.75;43.10
10476;BME280;26166;48.264;11.436;2023-01-29T16:07:35;96935.13;;;8.65;43.75
10476;BME280;26166;48.264;11.436;2023-01-29T16:10:35;96939.25;;;8.58;43.40
10476;BME280;26166;48.264;11.436;2023-01-29T16:13:37;96924.66;;;8.55;43.55
10476;BME280;26166;48.264;11.436;2023-01-29T16:16:41;96930.16;;;8.52;43.78
10476;BME280;26166;48.264;11.436;2023-01-29T16:22:51;96938.41;;;8.57;43.38
10476;BME280;26166;48.264;11.436;2023-01-29T16:25:52;96942.84;;;8.57;43.56
10476;BME280;26166;48.264;11.436;2023-01-29T16:28:54;96946.16;;;8.59;43.38
10476;BME280;26166;48.264;11.436;2023-01-29T16:31:55;96932.91;;;8.61;43.20
10476;BME280;26166;48.264;11.436;2023-01-29T16:35:00;96932.09;;;8.60;43.12
10476;BME280;26166;48.264;11.436;2023-01-29T16:38:05;96939.66;;;8.63;43.43
10476;BME280;26166;48.264;11.436;2023-01-29T16:41:11;96939.53;;;8.65;43.10
10476;BME280;26166;48.264;11.436;2023-01-29T16:47:35;96949.03;;;8.66;43.09
10476;BME280;26166;48.264;11.436;2023-01-29T16:50:36;96952.75;;;8.63;43.00
10476;BME280;26166;48.264;11.436;2023-01-29T16:53:37;96961.03;;;8.68;43.17
10476;BME280;26166;48.264;11.436;2023-01-29T16:56:37;96954.69;;;8.71;43.04
10476;BME280;26166;48.264;11.436;2023-01-29T16:59:38;96962.44;;;8.72;43.14
10476;BME280;26166;48.264;11.436;2023-01-29T17:02:39;96958.28;;;8.70;42.83
10476;BME280;26166;48.264;11.436;2023-01-29T17:05:39;96959.38;;;8.67;42.96
10476;BME280;26166;48.264;11.436;2023-01-29T17:08:40;96959.94;;;8.71;43.07
10476;BME280;26166;48.264;11.436;2023-01-29T17:11:42;96958.94;;;8.72;42.98
10476;BME280;26166;48.264;11.436;2023-01-29T17:14:59;96958.00;;;8.73;42.97
10476;BME280;26166;48.264;11.436;2023-01-29T17:17:59;96958.00;;;8.73;42.77
10476;BME280;26166;48.264;11.436;2023-01-29T17:20:59;96972.06;;;8.72;43.00
10476;BME280;26166;48.264;11.436;2023-01-29T17:24:00;96967.94;;;8.69;43.16
10476;BME280;26166;48.264;11.436;2023-01-29T17:27:00;96957.44;;;8.69;42.96
10476;BME280;26166;48.264;11.436;2023-01-29T17:30:01;96963.50;;;8.70;42.84
10476;BME280;26166;48.264;11.436;2023-01-29T17:33:11;96960.75;;;8.71;43.12
10476;BME280;26166;48.264;11.436;2023-01-29T17:39:23;96964.19;;;8.72;42.92
10476;BME280;26166;48.264;11.436;2023-01-29T18:21:14;96950.00;;;8.55;42.73
10476;BME280;26166;48.264;11.436;2023-01-29T18:24:18;96958.13;;;8.52;43.07
10476;BME280;26166;48.264;11.436;2023-01-29T18:27:32;96952.75;;;8.53;43.14
10476;BME280;26166;48.264;11.436;2023-01-29T18:30:40;96951.91;;;8.53;43.12
10476;BME280;26166;48.264;11.436;2023-01-29T18:33:59;96951.66;;;8.56;43.10
10476;BME280;26166;48.264;11.436;2023-01-29T18:37:00;96953.56;;;8.54;43.25
10476;BME280;26166;48.264;11.436;2023-01-29T18:40:16;96951.66;;;8.46;43.44
10476;BME280;26166;48.264;11.436;2023-01-29T18:43:33;96943.38;;;8.51;43.37
10476;BME280;26166;48.264;11.436;2023-01-29T18:46:36;96942.00;;;8.56;43.33
10476;BME280;26166;48.264;11.436;2023-01-29T18:49:45;96941.03;;;8.57;43.33
10476;BME280;26166;48.264;11.436;2023-01-29T18:53:02;96943.38;;;8.61;43.25
10476;BME280;26166;48.264;11.436;2023-01-29T19:03:21;96953.47;;;8.55;43.71
10476;BME280;26166;48.264;11.436;2023-01-29T19:10:34;96951.41;;;8.59;43.55
10476;BME280;26166;48.264;11.436;2023-01-29T19:13:45;96954.44;;;8.64;43.25